Flight Track Log - Related Links

Times and Time Zones

All times are in EDT time to prevent confusion due to time zone crossing. See the UAL1630 flight status page for this flight to view local times or setup timezone preferences in your user account.


Time Position Orientation Groundspeed Altitude Reporting Facility
EDT Latitude Longitude Course Direction KTS MPH feet Rate Location/Type
Tue 04:22:37 PM 33.9320 -118.4390 262° West 172 198 1,900  Level FlightAware ADS-B
Tue 04:22:52 PM 33.9290 -118.4540 256° West 201 231 2,100 1,400 Climbing FlightAware ADS-B
Tue 04:23:07 PM 33.9190 -118.4670 227° Southwest 213 245 2,600 1,950 Climbing FlightAware ADS-B
Tue 04:23:32 PM 33.9020 -118.4880 226° Southwest 241 277 3,400 2,509 Climbing FlightAware ADS-B
Tue 04:24:02 PM 33.8780 -118.5170 225° Southwest 255 293 4,900 2,800 Climbing FlightAware ADS-B
Tue 04:24:17 PM 33.8580 -118.5220 192° South 275 316 5,500 2,640 Climbing FlightAware ADS-B
Tue 04:24:27 PM 33.8470 -118.5210 176° South 274 315 6,000 3,055 Climbing FlightAware ADS-B
Tue 04:25:12 PM 33.7900 -118.5190 178° South 284 327 8,300 3,086 Climbing FlightAware ADS-B
Tue 04:25:37 PM 33.7540 -118.5130 172° South 296 341 9,600 2,550 Climbing FlightAware ADS-B
Tue 04:25:52 PM 33.7360 -118.5010 151° Southeast 308 354 10,000 1,600 Climbing FlightAware ADS-B
Tue 04:26:07 PM 33.7200 -118.4820 135° Southeast 327 376 10,400 2,400 Climbing FlightAware ADS-B
Tue 04:26:47 PM 33.6870 -118.4180 122° Southeast 340 391 12,200 2,047 Climbing FlightAware ADS-B
Tue 04:27:32 PM 33.6470 -118.3440 123° Southeast 386 444 13,300 1,700 Climbing FlightAware ADS-B
Tue 04:27:47 PM 33.6410 -118.3110 102° East 387 445 13,900 2,509 Climbing FlightAware ADS-B
Tue 04:28:27 PM 33.6400 -118.2290 91° East 397 457 15,600 2,625 Climbing FlightAware ADS-B
Tue 04:29:07 PM 33.6420 -118.1350 89° East 406 467 17,400 2,400 Climbing FlightAware ADS-B
Tue 04:29:52 PM 33.6410 -118.0340 91° East 421 484 19,000 1,906 Climbing FlightAware ADS-B
Tue 04:30:32 PM 33.6400 -117.9430 91° East 439 505 20,100 1,575 Climbing FlightAware ADS-B
Tue 04:31:12 PM 33.6400 -117.8390 90° East 466 536 21,100 1,500 Climbing FlightAware ADS-B
Tue 04:31:52 PM 33.6390 -117.7310 91° East 486 559 22,100 1,553 Climbing FlightAware ADS-B
Tue 04:32:37 PM 33.6390 -117.6070 90° East 503 579 23,300 1,667 Climbing FlightAware ADS-B
Tue 04:33:22 PM 33.6380 -117.4820 91° East 515 593 24,600 1,694 Climbing FlightAware ADS-B
Tue 04:34:02 PM 33.6370 -117.3680 91° East 526 605 25,700 1,482 Climbing FlightAware ADS-B
Tue 04:34:47 PM 33.6360 -117.2310 90° East 543 625 26,700 1,412 Climbing FlightAware ADS-B
Tue 04:35:27 PM 33.6350 -117.1110 91° East 554 638 27,700 1,500 Climbing FlightAware ADS-B
Tue 04:36:07 PM 33.6340 -116.9840 91° East 562 647 28,700 1,412 Climbing FlightAware ADS-B
Tue 04:36:52 PM 33.6320 -116.8570 91° East 569 655 29,700 1,553 Climbing FlightAware ADS-B
Tue 04:37:32 PM 33.6310 -116.7280 90° East 567 652 30,900 1,958 Climbing FlightAware ADS-B
Tue 04:38:27 PM 33.6770 -116.5660 71° East 546 628 32,800 1,267 Climbing FlightAware ADS-B
Tue 04:39:02 PM 33.7130 -116.4840 62° Northeast 546 628 32,800 1,553 Level FlightAware ADS-B
Tue 04:39:52 PM 33.7640 -116.3350 68° East 537 618 35,000 1,389 Climbing FlightAware ADS-B
Tue 04:40:37 PM 33.8110 -116.2100 66° East 538 619 35,000  Level FlightAware ADS-B
Tue 04:41:32 PM 33.8670 -116.0700 64° Northeast 541 623 35,000  Level FlightAware ADS-B
Tue 04:42:12 PM 33.9120 -115.9590 64° Northeast 547 629 35,000  Level FlightAware ADS-B
Tue 04:42:57 PM 33.9620 -115.8350 64° Northeast 551 634 35,000  Level FlightAware ADS-B
Tue 04:43:37 PM 34.0100 -115.7150 64° Northeast 554 638 35,000  Level FlightAware ADS-B
Tue 04:44:17 PM 34.0530 -115.6070 64° Northeast 556 640 35,000  Level FlightAware ADS-B
Tue 04:45:02 PM 34.1050 -115.4790 64° Northeast 557 641 35,000  Level FlightAware ADS-B
Tue 04:45:37 PM 34.1410 -115.3880 64° Northeast 558 642 35,000  Level FlightAware ADS-B
Tue 04:46:27 PM 34.1990 -115.2410 64° Northeast 559 643 35,000  Level FlightAware ADS-B
Tue 04:47:17 PM 34.2530 -115.1080 64° Northeast 559 643 35,000  Level FlightAware ADS-B
Tue 04:47:57 PM 34.2910 -115.0120 64° Northeast 559 643 35,000  Level FlightAware ADS-B
Tue 04:48:37 PM 34.3300 -114.9160 64° Northeast 559 643 35,000  Level FlightAware ADS-B
Tue 04:49:27 PM 34.3780 -114.7970 64° Northeast 559 643 35,000  Level FlightAware ADS-B
Tue 04:50:07 PM 34.4430 -114.6210 66° East 554 638 35,000  Level FlightAware ADS-B
Tue 04:50:42 PM 34.4800 -114.5250 65° Northeast 554 638 35,000  Level FlightAware ADS-B
Tue 04:51:32 PM 34.5360 -114.3820 65° Northeast 554 638 35,000  Level FlightAware ADS-B
Tue 04:52:12 PM 34.5800 -114.2680 65° Northeast 552 635 35,000  Level FlightAware ADS-B
Tue 04:52:57 PM 34.6280 -114.1450 65° Northeast 552 635 35,000  Level FlightAware ADS-B
Tue 04:53:37 PM 34.6710 -114.0320 65° Northeast 550 633 35,000  Level FlightAware ADS-B
Tue 04:54:17 PM 34.7130 -113.9220 65° Northeast 550 633 35,000  Level FlightAware ADS-B
Tue 04:55:02 PM 34.7630 -113.7920 65° Northeast 548 631 35,000  Level FlightAware ADS-B
Tue 04:55:42 PM 34.8020 -113.6780 67° East 550 633 35,000  Level FlightAware ADS-B
Tue 04:56:27 PM 34.8430 -113.5530 68° East 551 634 35,000  Level FlightAware ADS-B
Tue 04:57:07 PM 34.8810 -113.4350 69° East 552 635 35,000  Level FlightAware ADS-B
Tue 04:57:47 PM 34.9190 -113.3220 68° East 553 636 35,000  Level FlightAware ADS-B
Tue 04:58:32 PM 34.9620 -113.1930 68° East 553 636 35,000  Level FlightAware ADS-B
Tue 04:59:12 PM 35.0020 -113.0720 68° East 552 635 35,000  Level FlightAware ADS-B
Tue 04:59:57 PM 35.0430 -112.9470 68° East 552 635 35,000  Level FlightAware ADS-B
Tue 05:00:37 PM 35.0810 -112.8310 68° East 551 634 35,000  Level FlightAware ADS-B
Tue 05:01:17 PM 35.1190 -112.7140 68° East 552 635 35,000  Level FlightAware ADS-B
Tue 05:02:02 PM 35.1620 -112.5830 68° East 550 633 35,000  Level FlightAware ADS-B
Tue 05:02:42 PM 35.1980 -112.4690 69° East 550 633 35,000  Level FlightAware ADS-B
Tue 05:03:22 PM 35.2370 -112.3500 68° East 550 633 35,000  Level FlightAware ADS-B
Tue 05:04:07 PM 35.2780 -112.2210 69° East 550 633 35,000  Level FlightAware ADS-B
Tue 05:04:47 PM 35.3140 -112.1080 69° East 550 633 35,000  Level FlightAware ADS-B
Tue 05:05:32 PM 35.3570 -111.9730 69° East 550 633 35,000  Level FlightAware ADS-B
Tue 05:06:12 PM 35.3930 -111.8600 69° East 548 631 35,000  Level FlightAware ADS-B
Tue 05:06:52 PM 35.4300 -111.7420 69° East 546 628 35,000  Level FlightAware ADS-B
Tue 05:07:37 PM 35.4700 -111.6160 69° East 542 624 35,000  Level FlightAware ADS-B
Tue 05:08:17 PM 35.5050 -111.5040 69° East 542 624 35,000  Level FlightAware ADS-B
Tue 05:09:02 PM 35.5460 -111.3710 69° East 539 620 35,000  Level FlightAware ADS-B
Tue 05:09:42 PM 35.5820 -111.2550 69° East 540 621 35,000  Level FlightAware ADS-B
Tue 05:10:22 PM 35.6180 -111.1400 69° East 539 620 35,000  Level FlightAware ADS-B
Tue 05:11:07 PM 35.6560 -111.0160 69° East 540 621 35,000  Level FlightAware ADS-B
Tue 05:11:47 PM 35.6920 -110.8980 69° East 541 623 35,000  Level FlightAware ADS-B
Tue 05:12:32 PM 35.7330 -110.7660 69° East 540 621 35,000  Level FlightAware ADS-B
Tue 05:13:12 PM 35.7670 -110.6520 70° East 541 623 35,000  Level FlightAware ADS-B
Tue 05:13:52 PM 35.8010 -110.5420 69° East 539 620 35,000  Level FlightAware ADS-B
Tue 05:14:37 PM 35.8410 -110.4080 70° East 538 619 35,000  Level FlightAware ADS-B
Tue 05:15:17 PM 35.8740 -110.2980 70° East 537 618 35,000  Level FlightAware ADS-B
Tue 05:16:12 PM 35.9220 -110.1360 70° East 534 615 35,000  Level FlightAware ADS-B
Tue 05:16:57 PM 35.9600 -110.0100 70° East 532 612 35,000  Level FlightAware ADS-B
Tue 05:17:37 PM 35.9930 -109.8950 70° East 528 608 35,000  Level FlightAware ADS-B
Tue 05:18:22 PM 36.0320 -109.7660 69° East 528 608 35,000  Level FlightAware ADS-B
Tue 05:18:57 PM 36.0580 -109.6750 71° East 529 609 35,000  Level FlightAware ADS-B
Tue 05:19:42 PM 36.0920 -109.5620 70° East 529 609 35,000  Level FlightAware ADS-B
Tue 05:20:22 PM 36.1200 -109.4650 70° East 529 609 35,000  Level FlightAware ADS-B
Tue 05:21:02 PM 36.1480 -109.3680 70° East 529 609 35,000  Level FlightAware ADS-B
Tue 05:21:52 PM 36.1840 -109.2470 70° East 529 609 35,000  Level FlightAware ADS-B
Tue 05:22:32 PM 36.2120 -109.1500 70° East 529 609 35,000  Level FlightAware ADS-B
Tue 05:23:12 PM 36.2410 -109.0530 70° East 529 609 35,000  Level FlightAware ADS-B
Tue 05:23:52 PM 36.2690 -108.9560 70° East 529 609 35,000  Level FlightAware ADS-B
Tue 05:24:32 PM 36.2980 -108.8590 70° East 529 609 35,000  Level FlightAware ADS-B
Tue 05:25:22 PM 36.3330 -108.7380 70° East 529 609 35,000  Level FlightAware ADS-B
Tue 05:26:02 PM 36.3620 -108.6410 70° East 529 609 35,000  Level FlightAware ADS-B
Tue 05:26:42 PM 36.3900 -108.5440 70° East 529 609 35,000  Level FlightAware ADS-B
Tue 05:27:22 PM 36.4190 -108.4470 70° East 529 609 35,000 884 Level FlightAware ADS-B
Tue 05:28:17 PM 36.5060 -108.0980 73° East 522 601 36,400 1,200 Climbing FlightAware ADS-B
Tue 05:29:02 PM 36.5450 -107.9540 71° East 519 597 37,000 424 Climbing FlightAware ADS-B
Tue 05:29:42 PM 36.5730 -107.8530 71° East 518 596 37,000  Level FlightAware ADS-B
Tue 05:30:27 PM 36.4890 -108.1580 251° West 37,000  Level FlightAware ADS-B
Tue 05:32:22 PM 36.6940 -107.4010 71° East 508 585 37,000  Level FlightAware ADS-B
Tue 05:33:02 PM 36.7230 -107.2920 72° East 508 585 37,000  Level FlightAware ADS-B
Tue 05:34:42 PM 36.7970 -107.0110 72° East 508 585 37,000  Level FlightAware ADS-B
Tue 05:35:22 PM 36.8260 -106.9000 72° East 508 585 37,000  Level FlightAware ADS-B
Tue 05:36:02 PM 36.8550 -106.7920 71° East 509 586 37,000  Level FlightAware ADS-B
Tue 05:36:57 PM 36.8920 -106.6490 72° East 510 587 37,000  Level FlightAware ADS-B
Tue 05:37:37 PM 36.9160 -106.5540 72° East 510 587 37,000  Level FlightAware ADS-B
Tue 05:38:17 PM 36.9410 -106.4580 72° East 510 587 37,000  Level FlightAware ADS-B
Tue 05:39:07 PM 36.9720 -106.3390 72° East 510 587 37,000  Level FlightAware ADS-B
Tue 05:39:47 PM 36.9970 -106.2440 72° East 510 587 37,000  Level FlightAware ADS-B
Tue 05:40:27 PM 37.0220 -106.1480 72° East 510 587 37,000  Level FlightAware ADS-B
Tue 05:41:07 PM 37.0460 -106.0520 73° East 510 587 37,000  Level FlightAware ADS-B
Tue 05:41:47 PM 37.0710 -105.9570 72° East 510 587 37,000  Level FlightAware ADS-B
Tue 05:42:37 PM 37.1020 -105.8370 72° East 510 587 37,000  Level FlightAware ADS-B
Tue 05:43:17 PM 37.1270 -105.7420 72° East 510 587 37,000  Level FlightAware ADS-B
Tue 05:43:57 PM 37.1520 -105.6460 72° East 510 587 37,000  Level FlightAware ADS-B
Tue 05:44:37 PM 37.1770 -105.5500 72° East 510 587 37,000  Level FlightAware ADS-B
Tue 05:45:10 PM 37.3861 -105.3140 42° Northeast 511 588 37,000  Level FlightAware ADS-B
Tue 05:45:43 PM 37.4213 -105.2270 63° Northeast 510 587 37,000  Level FlightAware ADS-B
Tue 05:46:14 PM 37.4541 -105.1460 63° Northeast 510 587 37,000  Level FlightAware ADS-B
Tue 05:46:46 PM 37.4886 -105.0600 63° Northeast 511 588 37,000  Level FlightAware ADS-B
Tue 05:47:18 PM 37.5224 -104.9750 63° Northeast 511 588 37,000  Level FlightAware ADS-B
Tue 05:47:49 PM 37.5552 -104.8940 63° Northeast 513 590 37,000  Level FlightAware ADS-B
Tue 05:48:19 PM 37.5880 -104.8120 63° Northeast 512 589 37,000  Level FlightAware ADS-B
Tue 05:49:03 PM 37.6333 -104.6970 64° Northeast 512 589 37,000  Level FlightAware ADS-B
Tue 05:49:37 PM 37.6660 -104.6150 63° Northeast 512 589 37,000  Level FlightAware ADS-B
Tue 05:50:00 PM 37.6915 -104.5420 66° East 516 594 37,000  Level FlightAware ADS-B
Tue 05:50:45 PM 37.7262 -104.4140 71° East 516 594 37,000  Level FlightAware ADS-B
Tue 05:51:22 PM 37.7487 -104.3070 75° East 517 595 37,000  Level FlightAware ADS-B
Tue 05:51:54 PM 37.7676 -104.2120 76° East 518 596 37,000  Level FlightAware ADS-B
Tue 05:52:25 PM 37.7861 -104.1190 76° East 517 595 37,000  Level FlightAware ADS-B
Tue 05:52:56 PM 37.8038 -104.0310 76° East 516 594 37,000  Level FlightAware ADS-B
Tue 05:53:27 PM 37.8220 -103.9390 76° East 516 594 37,000  Level FlightAware ADS-B
Tue 05:53:58 PM 37.8395 -103.8510 76° East 517 595 37,000  Level FlightAware ADS-B
Tue 05:54:28 PM 37.8570 -103.7630 76° East 514 592 37,000  Level FlightAware ADS-B
Tue 05:54:58 PM 37.8742 -103.6760 76° East 514 592 37,000  Level FlightAware ADS-B
Tue 05:55:28 PM 37.8918 -103.5870 76° East 514 592 37,000  Level FlightAware ADS-B
Tue 05:55:58 PM 37.9090 -103.4990 76° East 514 592 37,000  Level FlightAware ADS-B
Tue 05:56:29 PM 37.9262 -103.4110 76° East 514 592 37,000  Level FlightAware ADS-B
Tue 05:57:00 PM 37.9440 -103.3190 76° East 515 593 37,000  Level FlightAware ADS-B
Tue 05:57:30 PM 37.9610 -103.2310 76° East 512 589 37,000  Level FlightAware ADS-B
Tue 05:58:00 PM 37.9779 -103.1440 76° East 512 589 37,000  Level FlightAware ADS-B
Tue 05:58:31 PM 37.9948 -103.0550 76° East 511 588 37,000  Level FlightAware ADS-B
Tue 05:59:01 PM 38.0117 -102.9670 76° East 512 589 37,000  Level FlightAware ADS-B
Tue 05:59:31 PM 38.0283 -102.8790 77° East 511 588 37,000  Level FlightAware ADS-B
Tue 06:00:01 PM 38.0450 -102.7910 76° East 511 588 37,000  Level FlightAware ADS-B
Tue 06:00:32 PM 38.0620 -102.7010 76° East 511 588 37,000  Level FlightAware ADS-B
Tue 06:01:02 PM 38.0782 -102.6140 77° East 512 589 37,000  Level FlightAware ADS-B
Tue 06:01:32 PM 38.0948 -102.5260 76° East 511 588 37,000  Level FlightAware ADS-B
Tue 06:02:03 PM 38.1112 -102.4380 77° East 510 587 37,000  Level FlightAware ADS-B
Tue 06:02:33 PM 38.1274 -102.3500 77° East 511 588 37,000  Level FlightAware ADS-B
Tue 06:03:03 PM 38.1436 -102.2630 77° East 511 588 37,000  Level FlightAware ADS-B
Tue 06:03:33 PM 38.1629 -102.1760 74° East 509 586 37,000  Level FlightAware ADS-B
Tue 06:04:04 PM 38.1835 -102.0880 73° East 508 585 37,000  Level FlightAware ADS-B
Tue 06:04:34 PM 38.2039 -102.0000 74° East 509 586 37,000  Level FlightAware ADS-B
Tue 06:05:05 PM 38.2240 -101.9130 74° East 510 587 37,000  Level FlightAware ADS-B
Tue 06:05:35 PM 38.2439 -101.8270 74° East 510 587 37,000  Level FlightAware ADS-B
Tue 06:06:07 PM 38.2659 -101.7340 73° East 510 587 37,000  Level FlightAware ADS-B
Tue 06:06:39 PM 38.2879 -101.6420 73° East 510 587 37,000  Level FlightAware ADS-B
Tue 06:07:32 PM 38.3160 -101.5240 73° East 510 587 37,000  Level FlightAware ADS-B
Tue 06:08:12 PM 38.3400 -101.4260 73° East 510 587 37,000  Level FlightAware ADS-B
Tue 06:09:02 PM 38.3690 -101.3030 73° East 510 587 37,000  Level FlightAware ADS-B
Tue 06:09:42 PM 38.3930 -101.2060 72° East 510 587 37,000  Level FlightAware ADS-B
Tue 06:10:22 PM 38.4160 -101.1080 73° East 510 587 37,000  Level FlightAware ADS-B
Tue 06:11:02 PM 38.4390 -101.0100 73° East 510 587 37,000  Level FlightAware ADS-B
Tue 06:11:42 PM 38.4630 -100.9120 73° East 510 587 37,000  Level FlightAware ADS-B
Tue 06:12:32 PM 38.4920 -100.7890 73° East 510 587 37,000  Level FlightAware ADS-B
Tue 06:13:12 PM 38.5160 -100.6910 73° East 510 587 37,000  Level FlightAware ADS-B
Tue 06:13:52 PM 38.5390 -100.5930 73° East 510 587 37,000  Level FlightAware ADS-B
Tue 06:14:32 PM 38.5620 -100.4950 73° East 510 587 37,000  Level FlightAware ADS-B
Tue 06:15:12 PM 38.5860 -100.3970 73° East 510 587 37,000  Level FlightAware ADS-B
Tue 06:16:02 PM 38.6150 -100.2740 73° East 510 587 37,000  Level FlightAware ADS-B
Tue 06:16:27 PM 38.6478 -99.9678 73° East 509 586 37,000  Level Kansas City Center
Tue 06:16:58 PM 38.6597 -99.8822 80° East 509 586 37,000  Level Denver Center
Tue 06:18:00 PM 38.6875 -99.6839 80° East 508 585 37,000  Level Denver Center
Tue 06:19:02 PM 38.7119 -99.5164 79° East 504 580 37,000  Level Denver Center
Tue 06:20:04 PM 38.7394 -99.3203 80° East 502 578 37,000  Level Denver Center
Tue 06:20:35 PM 38.7494 -99.2500 80° East 502 578 37,000  Level Kansas City Center
Tue 06:21:37 PM 38.7756 -99.0719 79° East 505 581 37,000  Level Kansas City Center
Tue 06:22:39 PM 38.8000 -98.8975 80° East 499 574 37,000  Level Kansas City Center
Tue 06:23:41 PM 38.8225 -98.7239 81° East 493 567 37,000  Level Kansas City Center
Tue 06:24:43 PM 38.8497 -98.5169 80° East 489 563 37,000 282 Level Kansas City Center
Tue 06:30:47 PM 38.9770 -97.4740 80° East 480 552 39,000 293 Climbing FlightAware ADS-B
Tue 06:31:32 PM 38.9920 -97.3620 80° East 480 552 39,000  Level FlightAware ADS-B
Tue 06:32:22 PM 39.0090 -97.2420 80° East 480 552 39,000  Level FlightAware ADS-B
Tue 06:33:02 PM 39.0220 -97.1460 80° East 480 552 39,000  Level FlightAware ADS-B
Tue 06:33:42 PM 39.0350 -97.0510 80° East 480 552 39,000  Level FlightAware ADS-B
Tue 06:34:22 PM 39.0480 -96.9550 80° East 480 552 39,000  Level FlightAware ADS-B
Tue 06:35:02 PM 39.0610 -96.8590 80° East 480 552 39,000  Level FlightAware ADS-B
Tue 06:35:52 PM 39.0770 -96.7400 80° East 480 552 39,000  Level FlightAware ADS-B
Tue 06:36:32 PM 39.0910 -96.6440 79° East 480 552 39,000  Level FlightAware ADS-B
Tue 06:37:12 PM 39.1040 -96.5480 80° East 480 552 39,000  Level FlightAware ADS-B
Tue 06:37:52 PM 39.1170 -96.4520 80° East 480 552 39,000  Level FlightAware ADS-B
Tue 06:38:32 PM 39.1330 -96.1650 86° East 473 544 39,000  Level FlightAware ADS-B
Tue 06:39:22 PM 39.1490 -96.0230 82° East 473 544 39,000  Level FlightAware ADS-B
Tue 06:40:17 PM 39.1650 -95.8800 82° East 472 543 39,000  Level FlightAware ADS-B
Tue 06:40:52 PM 39.1690 -95.8420 82° East 472 543 39,000  Level FlightAware ADS-B
Tue 06:46:02 PM 39.2570 -95.0140 82° East 465 535 39,000  Level FlightAware ADS-B
Tue 06:47:42 PM 39.2830 -94.7600 82° East 464 534 39,000  Level FlightAware ADS-B
Tue 06:48:37 PM 39.2970 -94.6370 82° East 463 533 39,000  Level FlightAware ADS-B
Tue 06:49:22 PM 39.3330 -94.3750 80° East 462 532 39,000  Level FlightAware ADS-B
Tue 06:50:02 PM 39.3470 -94.2690 80° East 461 531 39,000  Level FlightAware ADS-B
Tue 06:50:47 PM 39.3630 -94.1420 81° East 461 531 39,000  Level FlightAware ADS-B
Tue 06:51:27 PM 39.3750 -94.0380 81° East 461 531 39,000  Level FlightAware ADS-B
Tue 06:52:12 PM 39.3850 -93.9140 84° East 460 529 39,000  Level FlightAware ADS-B
Tue 06:52:52 PM 39.3950 -93.8040 83° East 460 529 39,000  Level FlightAware ADS-B
Tue 06:53:32 PM 39.4040 -93.6970 84° East 461 531 39,000  Level FlightAware ADS-B
Tue 06:54:17 PM 39.4160 -93.5700 83° East 461 531 39,000  Level FlightAware ADS-B
Tue 06:54:57 PM 39.4250 -93.4580 84° East 461 531 39,000  Level FlightAware ADS-B
Tue 06:56:37 PM 39.4490 -93.1850 83° East 462 532 39,000  Level FlightAware ADS-B
Tue 06:57:17 PM 39.4580 -93.0760 84° East 463 533 39,000  Level FlightAware ADS-B
Tue 06:57:57 PM 39.4670 -92.9680 84° East 464 534 39,000  Level FlightAware ADS-B
Tue 06:58:42 PM 39.4770 -92.8460 84° East 465 535 39,000  Level FlightAware ADS-B
Tue 06:59:22 PM 39.4860 -92.7350 84° East 466 536 39,000  Level FlightAware ADS-B
Tue 07:00:07 PM 39.4960 -92.6050 84° East 467 537 39,000  Level FlightAware ADS-B
Tue 07:00:47 PM 39.5040 -92.4960 85° East 467 537 39,000  Level FlightAware ADS-B
Tue 07:01:32 PM 39.5140 -92.3740 84° East 469 540 39,000  Level FlightAware ADS-B
Tue 07:02:27 PM 39.5250 -92.2170 85° East 469 540 39,000  Level FlightAware ADS-B
Tue 07:03:07 PM 39.5330 -92.1080 85° East 468 539 39,000  Level FlightAware ADS-B
Tue 07:03:52 PM 39.5420 -91.9860 84° East 465 535 39,000  Level FlightAware ADS-B
Tue 07:04:32 PM 39.5500 -91.8780 84° East 463 533 39,000  Level FlightAware ADS-B
Tue 07:05:07 PM 39.5570 -91.7830 85° East 462 532 39,000  Level FlightAware ADS-B
Tue 07:05:57 PM 39.5670 -91.6380 85° East 459 528 39,000  Level FlightAware ADS-B
Tue 07:06:37 PM 39.5740 -91.5280 85° East 457 526 39,000  Level FlightAware ADS-B
Tue 07:07:22 PM 39.5820 -91.4110 85° East 455 524 39,000  Level FlightAware ADS-B
Tue 07:08:02 PM 39.5900 -91.2980 85° East 454 522 39,000  Level FlightAware ADS-B
Tue 07:08:42 PM 39.5970 -91.1880 85° East 453 521 39,000  Level FlightAware ADS-B
Tue 07:09:27 PM 39.6050 -91.0690 85° East 453 521 39,000  Level FlightAware ADS-B
Tue 07:10:07 PM 39.6110 -90.9620 86° East 453 521 39,000  Level FlightAware ADS-B
Tue 07:10:42 PM 39.6170 -90.8720 85° East 453 521 39,000  Level FlightAware ADS-B
Tue 07:11:32 PM 39.6260 -90.7310 85° East 453 521 39,000  Level FlightAware ADS-B
Tue 07:12:12 PM 39.6320 -90.6260 86° East 455 524 39,000  Level FlightAware ADS-B
Tue 07:12:57 PM 39.6390 -90.5100 85° East 457 526 39,000  Level FlightAware ADS-B
Tue 07:13:32 PM 39.6450 -90.4090 86° East 458 527 39,000  Level FlightAware ADS-B
Tue 07:14:22 PM 39.6530 -90.2670 86° East 460 529 39,000  Level FlightAware ADS-B
Tue 07:15:02 PM 39.6590 -90.1580 86° East 460 529 39,000  Level FlightAware ADS-B
Tue 07:15:57 PM 39.6680 -90.0110 85° East 461 531 39,000  Level FlightAware ADS-B
Tue 07:16:42 PM 39.6740 -89.8870 86° East 462 532 39,000  Level FlightAware ADS-B
Tue 07:17:22 PM 39.6790 -89.7790 87° East 462 532 39,000  Level FlightAware ADS-B
Tue 07:18:02 PM 39.6860 -89.6600 86° East 461 531 39,000  Level FlightAware ADS-B
Tue 07:18:47 PM 39.6920 -89.5400 86° East 460 529 39,000  Level FlightAware ADS-B
Tue 07:19:27 PM 39.6970 -89.4330 86° East 459 528 39,000  Level FlightAware ADS-B
Tue 07:20:12 PM 39.7030 -89.3130 86° East 457 526 39,000  Level FlightAware ADS-B
Tue 07:20:52 PM 39.7080 -89.1970 87° East 455 524 39,000  Level FlightAware ADS-B
Tue 07:21:32 PM 39.7130 -89.0960 86° East 454 522 39,000  Level FlightAware ADS-B
Tue 07:22:17 PM 39.7190 -88.9710 86° East 453 521 39,000  Level FlightAware ADS-B
Tue 07:22:57 PM 39.7240 -88.8570 87° East 451 519 39,000  Level FlightAware ADS-B
Tue 07:23:42 PM 39.7290 -88.7350 87° East 450 518 39,000  Level FlightAware ADS-B
Tue 07:24:22 PM 39.7340 -88.6280 86° East 449 517 39,000  Level FlightAware ADS-B
Tue 07:25:02 PM 39.7380 -88.5210 87° East 448 516 39,000  Level FlightAware ADS-B
Tue 07:25:47 PM 39.7430 -88.3980 87° East 448 516 39,000  Level FlightAware ADS-B
Tue 07:26:27 PM 39.7480 -88.2910 86° East 447 514 39,000  Level FlightAware ADS-B
Tue 07:27:02 PM 39.7510 -88.2010 87° East 447 514 39,000  Level FlightAware ADS-B
Tue 07:27:52 PM 39.7560 -88.0710 87° East 445 512 39,000  Level FlightAware ADS-B
Tue 07:28:32 PM 39.7600 -87.9560 87° East 444 511 39,000  Level FlightAware ADS-B
Tue 07:29:17 PM 39.7650 -87.8400 87° East 443 510 39,000  Level FlightAware ADS-B
Tue 07:29:57 PM 39.7680 -87.7300 88° East 443 510 39,000  Level FlightAware ADS-B
Tue 07:30:37 PM 39.7720 -87.6250 87° East 443 510 39,000  Level FlightAware ADS-B
Tue 07:31:17 PM 39.7760 -87.5210 87° East 444 511 39,000  Level FlightAware ADS-B
Tue 07:32:02 PM 39.7800 -87.3990 88° East 444 511 39,000  Level FlightAware ADS-B
Tue 07:32:37 PM 39.7820 -87.3150 88° East 445 512 39,000  Level FlightAware ADS-B
Tue 07:33:22 PM 39.7860 -87.1930 88° East 445 512 39,000  Level FlightAware ADS-B
Tue 07:34:07 PM 39.7900 -87.0630 88° East 445 512 39,000  Level FlightAware ADS-B
Tue 07:34:52 PM 39.7930 -86.9510 88° East 445 512 39,000  Level FlightAware ADS-B
Tue 07:35:32 PM 39.7960 -86.8420 88° East 445 512 39,000  Level FlightAware ADS-B
Tue 07:36:17 PM 39.8000 -86.7190 88° East 444 511 39,000  Level FlightAware ADS-B
Tue 07:36:57 PM 39.8020 -86.6120 89° East 445 512 39,000  Level FlightAware ADS-B
Tue 07:37:37 PM 39.8050 -86.5090 88° East 445 512 39,000  Level FlightAware ADS-B
Tue 07:38:22 PM 39.8100 -86.3850 87° East 444 511 39,000  Level FlightAware ADS-B
Tue 07:39:12 PM 39.8330 -86.2520 77° East 443 510 39,000  Level FlightAware ADS-B
Tue 07:39:57 PM 39.8550 -86.1460 75° East 443 510 39,000  Level FlightAware ADS-B
Tue 07:40:42 PM 39.8810 -86.0200 75° East 443 510 39,000  Level FlightAware ADS-B
Tue 07:41:22 PM 39.9020 -85.9250 74° East 443 510 39,000  Level FlightAware ADS-B
Tue 07:42:02 PM 39.9230 -85.8250 75° East 442 509 39,000  Level FlightAware ADS-B
Tue 07:42:47 PM 39.9490 -85.7020 75° East 442 509 39,000  Level FlightAware ADS-B
Tue 07:43:27 PM 39.9700 -85.6020 75° East 442 509 39,000  Level FlightAware ADS-B
Tue 07:44:12 PM 39.9920 -85.4920 75° East 440 506 39,000  Level FlightAware ADS-B
Tue 07:44:52 PM 40.0130 -85.3920 75° East 440 506 39,000  Level FlightAware ADS-B
Tue 07:45:37 PM 40.0390 -85.2650 75° East 437 503 39,000  Level FlightAware ADS-B
Tue 07:46:17 PM 40.0600 -85.1630 75° East 437 503 39,000  Level FlightAware ADS-B
Tue 07:46:57 PM 40.0790 -85.0660 76° East 436 502 39,000  Level FlightAware ADS-B
Tue 07:47:42 PM 40.1030 -84.9510 75° East 435 501 39,000  Level FlightAware ADS-B
Tue 07:48:37 PM 40.1310 -84.8120 75° East 434 499 39,000  Level FlightAware ADS-B
Tue 07:49:17 PM 40.1510 -84.7100 76° East 433 498 39,000  Level FlightAware ADS-B
Tue 07:50:02 PM 40.1740 -84.5970 75° East 433 498 39,000  Level FlightAware ADS-B
Tue 07:50:42 PM 40.1940 -84.4940 76° East 432 497 39,000  Level FlightAware ADS-B
Tue 07:51:17 PM 40.2110 -84.4070 76° East 432 497 39,000  Level FlightAware ADS-B
Tue 07:52:07 PM 40.2370 -84.2760 75° East 433 498 39,000  Level FlightAware ADS-B
Tue 07:52:47 PM 40.2570 -84.1750 75° East 434 499 39,000  Level FlightAware ADS-B
Tue 07:53:32 PM 40.2800 -84.0630 75° East 435 501 39,000  Level FlightAware ADS-B
Tue 07:54:12 PM 40.3200 -83.9720 60° Northeast 435 501 39,000  Level FlightAware ADS-B
Tue 07:54:57 PM 40.3770 -83.8760 52° Northeast 436 502 39,000  Level FlightAware ADS-B
Tue 07:55:37 PM 40.4270 -83.7910 52° Northeast 438 504 39,000  Level FlightAware ADS-B
Tue 07:56:17 PM 40.4750 -83.7090 52° Northeast 439 505 39,000  Level FlightAware ADS-B
Tue 07:57:02 PM 40.5290 -83.6160 53° Northeast 441 507 39,000  Level FlightAware ADS-B
Tue 07:57:42 PM 40.5800 -83.5290 52° Northeast 441 507 39,000  Level FlightAware ADS-B
Tue 07:58:22 PM 40.6290 -83.4430 53° Northeast 441 507 39,000  Level FlightAware ADS-B
Tue 07:59:07 PM 40.6850 -83.3470 52° Northeast 441 507 39,000  Level FlightAware ADS-B
Tue 07:59:47 PM 40.7350 -83.2600 53° Northeast 442 509 39,000  Level FlightAware ADS-B
Tue 08:00:27 PM 40.7800 -83.1830 52° Northeast 442 509 39,000  Level FlightAware ADS-B
Tue 08:01:07 PM 40.8280 -83.1000 53° Northeast 442 509 39,000  Level FlightAware ADS-B
Tue 08:01:52 PM 40.8670 -82.9820 66° East 437 503 39,000  Level FlightAware ADS-B
Tue 08:02:37 PM 40.8910 -82.8640 75° East 437 503 39,000  Level FlightAware ADS-B
Tue 08:03:17 PM 40.9090 -82.7700 76° East 437 503 39,000  Level FlightAware ADS-B
Tue 08:04:02 PM 40.9320 -82.6530 75° East 435 501 39,000  Level FlightAware ADS-B
Tue 08:04:47 PM 40.9570 -82.5280 75° East 434 499 39,000  Level FlightAware ADS-B
Tue 08:05:27 PM 40.9760 -82.4260 76° East 433 498 39,000  Level FlightAware ADS-B
Tue 08:06:07 PM 40.9960 -82.3230 76° East 433 498 39,000  Level FlightAware ADS-B
Tue 08:06:52 PM 41.0180 -82.2110 75° East 433 498 39,000  Level FlightAware ADS-B
Tue 08:07:32 PM 41.0380 -82.1040 76° East 432 497 39,000  Level FlightAware ADS-B
Tue 08:08:12 PM 41.0580 -82.0000 76° East 432 497 39,000  Level FlightAware ADS-B
Tue 08:08:57 PM 41.0790 -81.8860 76° East 433 498 39,000  Level FlightAware ADS-B
Tue 08:10:17 PM 41.1170 -81.6830 76° East 434 499 39,000  Level FlightAware ADS-B
Tue 08:11:02 PM 41.1390 -81.5680 76° East 434 499 39,000  Level FlightAware ADS-B
Tue 08:11:47 PM 41.1600 -81.4500 77° East 434 499 39,000  Level FlightAware ADS-B
Tue 08:12:22 PM 41.1760 -81.3630 76° East 434 499 39,000  Level FlightAware ADS-B
Tue 08:13:07 PM 41.1980 -81.2440 76° East 433 498 39,000  Level FlightAware ADS-B
Tue 08:13:52 PM 41.2190 -81.1290 76° East 433 498 39,000  Level FlightAware ADS-B
Tue 08:14:27 PM 41.2340 -81.0410 77° East 433 498 39,000  Level FlightAware ADS-B
Tue 08:15:17 PM 41.2570 -80.9120 77° East 433 498 39,000  Level FlightAware ADS-B
Tue 08:15:57 PM 41.2770 -80.8050 76° East 433 498 39,000  Level FlightAware ADS-B
Tue 08:16:37 PM 41.2950 -80.6990 77° East 433 498 39,000  Level FlightAware ADS-B
Tue 08:17:22 PM 41.3150 -80.5840 77° East 434 499 39,000  Level FlightAware ADS-B
Tue 08:17:57 PM 41.3310 -80.4940 77° East 433 498 39,000  Level FlightAware ADS-B
Tue 08:18:42 PM 41.3520 -80.3730 77° East 433 498 39,000  Level FlightAware ADS-B
Tue 08:19:27 PM 41.3710 -80.2580 78° East 433 498 39,000  Level FlightAware ADS-B
Tue 08:20:07 PM 41.3890 -80.1540 77° East 433 498 39,000  Level FlightAware ADS-B
Tue 08:20:52 PM 41.4050 -80.0580 77° East 433 498 39,000  Level FlightAware ADS-B
Tue 08:21:27 PM 41.4220 -79.9590 77° East 433 498 39,000  Level FlightAware ADS-B
Tue 08:22:07 PM 41.4370 -79.8470 80° East 431 496 39,000  Level FlightAware ADS-B
Tue 08:22:57 PM 41.4500 -79.7120 83° East 429 494 39,000  Level FlightAware ADS-B
Tue 08:23:37 PM 41.4600 -79.6170 82° East 428 493 39,000  Level FlightAware ADS-B
Tue 08:24:22 PM 41.4740 -79.4880 82° East 425 489 39,000  Level FlightAware ADS-B
Tue 08:25:02 PM 41.4850 -79.3860 82° East 425 489 39,000  Level FlightAware ADS-B
Tue 08:25:47 PM 41.4970 -79.2720 82° East 424 488 39,000  Level FlightAware ADS-B
Tue 08:26:27 PM 41.5070 -79.1740 82° East 424 488 39,000  Level FlightAware ADS-B
Tue 08:27:07 PM 41.5190 -79.0640 82° East 425 489 39,000  Level FlightAware ADS-B
Tue 08:27:52 PM 41.5300 -78.9500 83° East 425 489 39,000  Level FlightAware ADS-B
Tue 08:28:32 PM 41.5400 -78.8450 83° East 425 489 39,000  Level FlightAware ADS-B
Tue 08:29:12 PM 41.5500 -78.7370 83° East 425 489 39,000  Level FlightAware ADS-B
Tue 08:29:57 PM 41.5600 -78.6220 83° East 424 488 39,000  Level FlightAware ADS-B
Tue 08:30:37 PM 41.5690 -78.5250 83° East 423 487 39,000  Level FlightAware ADS-B
Tue 08:31:07 PM 41.5770 -78.4430 83° East 422 486 39,000  Level FlightAware ADS-B
Tue 08:31:47 PM 41.5860 -78.3380 83° East 421 484 39,000  Level FlightAware ADS-B
Tue 08:32:32 PM 41.5970 -78.2190 83° East 421 484 39,000  Level FlightAware ADS-B
Tue 08:33:27 PM 41.6090 -78.0840 83° East 422 486 39,000  Level FlightAware ADS-B
Tue 08:34:07 PM 41.6170 -77.9810 84° East 421 484 39,000  Level FlightAware ADS-B
Tue 08:34:52 PM 41.6270 -77.8650 83° East 421 484 39,000  Level FlightAware ADS-B
Tue 08:35:32 PM 41.6360 -77.7650 83° East 420 483 39,000  Level FlightAware ADS-B
Tue 08:36:12 PM 41.6440 -77.6640 84° East 420 483 39,000  Level FlightAware ADS-B
Tue 08:36:57 PM 41.6540 -77.5430 84° East 420 483 39,000  Level FlightAware ADS-B
Tue 08:37:37 PM 41.6620 -77.4390 84° East 420 483 39,000  Level FlightAware ADS-B
Tue 08:38:22 PM 41.6710 -77.3250 84° East 420 483 39,000  Level FlightAware ADS-B
Tue 08:39:02 PM 41.6790 -77.2240 84° East 421 484 39,000  Level FlightAware ADS-B
Tue 08:39:32 PM 41.6760 -77.1420 93° East 417 480 39,000  Level FlightAware ADS-B
Tue 08:40:01 PM 41.6564 -77.0607 108° East 417 480 39,000  Level FlightAware ADS-B
Tue 08:40:32 PM 41.6358 -76.9876 111° Southeast 417 480 39,000  Level FlightAware ADS-B
Tue 08:41:02 PM 41.6152 -76.9143 111° Southeast 419 482 39,000  Level FlightAware ADS-B
Tue 08:41:32 PM 41.5947 -76.8413 111° Southeast 417 480 39,000 -590 Level FlightAware ADS-B
Tue 08:42:03 PM 41.5745 -76.7683 110° East 416 479 38,400 -1,279 Descending FlightAware ADS-B
Tue 08:42:33 PM 41.5541 -76.6947 110° East 417 480 37,700 -1,574 Descending FlightAware ADS-B
Tue 08:43:04 PM 41.5334 -76.6206 110° East 426 490 36,800 -1,594 Descending FlightAware ADS-B
Tue 08:43:37 PM 41.5106 -76.5387 110° East 433 498 36,000 -1,313 Descending FlightAware ADS-B
Tue 08:44:08 PM 41.4892 -76.4618 110° East 433 498 35,400 -1,355 Descending FlightAware ADS-B
Tue 08:44:39 PM 41.4669 -76.3830 111° Southeast 434 499 34,600 -1,645 Descending FlightAware ADS-B
Tue 08:45:10 PM 41.4454 -76.3068 111° Southeast 437 503 33,700 -1,672 Descending FlightAware ADS-B
Tue 08:45:40 PM 41.4236 -76.2297 111° Southeast 439 505 32,900 -1,619 Descending FlightAware ADS-B
Tue 08:46:13 PM 41.3999 -76.1457 111° Southeast 439 505 32,000 -1,714 Descending FlightAware ADS-B
Tue 08:46:43 PM 41.3786 -76.0709 111° Southeast 432 497 31,100 -2,066 Descending FlightAware ADS-B
Tue 08:47:14 PM 41.3570 -75.9957 111° Southeast 436 502 29,900 -1,869 Descending FlightAware ADS-B
Tue 08:47:44 PM 41.3357 -75.9214 111° Southeast 428 493 29,200 -1,574 Descending FlightAware ADS-B
Tue 08:48:15 PM 41.3143 -75.8462 111° Southeast 422 486 28,300 -1,770 Descending FlightAware ADS-B
Tue 08:48:45 PM 41.2928 -75.7724 111° Southeast 417 480 27,400 -1,770 Descending FlightAware ADS-B
Tue 08:49:16 PM 41.2712 -75.6992 111° Southeast 415 478 26,500 -1,742 Descending FlightAware ADS-B
Tue 08:49:47 PM 41.2477 -75.6273 113° Southeast 411 473 25,600 -1,672 Descending FlightAware ADS-B
Tue 08:50:17 PM 41.2241 -75.5576 114° Southeast 408 470 24,800 -1,574 Descending FlightAware ADS-B
Tue 08:50:48 PM 41.2003 -75.4876 114° Southeast 406 467 24,000 -1,475 Descending FlightAware ADS-B
Tue 08:51:18 PM 41.1771 -75.4191 114° Southeast 407 468 23,300 -1,065 Descending FlightAware ADS-B
Tue 08:51:50 PM 41.1527 -75.3477 114° Southeast 402 463 22,900 -968 Descending FlightAware ADS-B
Tue 08:52:20 PM 41.1297 -75.2804 114° Southeast 400 460 22,300 -952 Descending FlightAware ADS-B
Tue 08:52:53 PM 41.1053 -75.2092 114° Southeast 395 455 21,900 -762 Descending FlightAware ADS-B
Tue 08:53:23 PM 41.0827 -75.1427 114° Southeast 391 450 21,500 -871 Descending FlightAware ADS-B
Tue 08:53:55 PM 41.0588 -75.0734 115° Southeast 391 450 21,000 -484 Descending FlightAware ADS-B
Tue 08:54:25 PM 41.0364 -75.0080 114° Southeast 389 448 21,000  Level FlightAware ADS-B
Tue 08:54:51 PM 41.0164 -74.9501 115° Southeast 391 450 21,000  Level FlightAware ADS-B
Tue 08:54:56 PM 41.0128 -74.9402 116° Southeast 391 450 21,000  Level FlightAware ADS-B
Tue 08:55:09 PM 41.0032 -74.9117 114° Southeast 392 451 21,000  Level FlightAware ADS-B
Tue 08:55:11 PM 41.0018 -74.9068 111° Southeast 393 452 21,000  Level FlightAware ADS-B
Tue 08:55:23 PM 40.9948 -74.8801 109° East 393 452 21,000  Level FlightAware ADS-B
Tue 08:55:25 PM 40.9936 -74.8751 108° East 393 452 21,000 -400 Level FlightAware ADS-B
Tue 08:55:38 PM 40.9883 -74.8450 103° East 393 452 20,900 -581 Descending FlightAware ADS-B
Tue 08:55:56 PM 40.9826 -74.8025 100° East 394 453 20,700 -563 Descending FlightAware ADS-B
Tue 08:56:10 PM 40.9788 -74.7689 99° East 392 451 20,600 -600 Descending FlightAware ADS-B
Tue 08:56:26 PM 40.9747 -74.7309 98° East 391 450 20,400 -774 Descending FlightAware ADS-B
Tue 08:56:41 PM 40.9711 -74.6969 98° East 391 450 20,200 -1,000 Descending FlightAware ADS-B
Tue 08:56:56 PM 40.9671 -74.6597 98° East 390 449 19,900 -909 Descending FlightAware ADS-B
Tue 08:57:14 PM 40.9628 -74.6195 98° East 389 448 19,700 -581 Descending FlightAware ADS-B
Tue 08:57:27 PM 40.9593 -74.5886 99° East 389 448 19,600 -558 Descending FlightAware ADS-B
Tue 08:57:57 PM 40.9512 -74.5179 99° East 387 445 19,300 -600 Descending FlightAware ADS-B
Tue 08:58:27 PM 40.9431 -74.4467 99° East 384 442 19,000 -286 Descending FlightAware ADS-B
Tue 08:59:00 PM 40.9346 -74.3725 99° East 384 442 19,000  Level FlightAware ADS-B
Tue 08:59:30 PM 40.9266 -74.3045 99° East 354 407 19,000  Level FlightAware ADS-B
Tue 08:59:44 PM 40.9234 -74.2755 98° East 340 391 19,000  Level FlightAware ADS-B
Tue 09:00:00 PM 40.9194 -74.2429 99° East 330 380 19,000  Level FlightAware ADS-B
Tue 09:00:16 PM 40.9158 -74.2111 99° East 322 371 19,000  Level FlightAware ADS-B
Tue 09:00:30 PM 40.9126 -74.1833 99° East 320 368 19,000  Level FlightAware ADS-B
Tue 09:00:40 PM 40.9100 -74.1641 100° East 318 366 19,000  Level FlightAware ADS-B
Tue 09:00:42 PM 40.9093 -74.1608 106° East 318 366 19,000 -857 Level FlightAware ADS-B
Tue 09:00:47 PM 40.9076 -74.1526 105° East 317 365 18,900 -1,200 Descending FlightAware ADS-B
Tue 09:00:52 PM 40.9048 -74.1425 110° East 316 364 18,800 -1,000 Descending FlightAware ADS-B
Tue 09:00:53 PM 40.9047 -74.1418 101° East 316 364 18,800 -1,000 Level FlightAware ADS-B
Tue 09:00:58 PM 40.9018 -74.1329 113° Southeast 315 362 18,700 -857 Descending FlightAware ADS-B
Tue 09:01:00 PM 40.8999 -74.1281 118° Southeast 314 361 18,700 -1,355 Level FlightAware ADS-B
Tue 09:01:29 PM 40.8788 -74.0822 121° Southeast 311 358 18,000 -1,355 Descending FlightAware ADS-B
Tue 09:01:31 PM 40.8772 -74.0793 126° Southeast 312 359 18,000 -1,800 Level FlightAware ADS-B
Tue 09:01:59 PM 40.8544 -74.0340 124° Southeast 313 360 17,100 -1,800 Descending FlightAware ADS-B
Tue 09:02:01 PM 40.8528 -74.0307 123° Southeast 314 361 17,100 -1,548 Level FlightAware ADS-B
Tue 09:02:30 PM 40.8298 -73.9847 123° Southeast 313 360 16,300 -1,622 Descending FlightAware ADS-B
Tue 09:02:38 PM 40.8231 -73.9713 123° Southeast 313 360 16,100 -1,400 Descending FlightAware ADS-B
Tue 09:03:00 PM 40.8062 -73.9368 123° Southeast 304 350 15,600 -1,358 Descending FlightAware ADS-B
Tue 09:03:31 PM 40.7826 -73.8892 123° Southeast 296 341 14,900 -1,500 Descending FlightAware ADS-B
Tue 09:03:40 PM 40.7763 -73.8755 121° Southeast 295 339 14,600 -1,610 Descending FlightAware ADS-B
Tue 09:04:12 PM 40.7581 -73.8246 115° Southeast 294 338 13,800 -1,525 Descending FlightAware ADS-B
Tue 09:04:39 PM 40.7431 -73.7804 114° Southeast 294 338 13,100 -1,500 Descending FlightAware ADS-B
Tue 09:04:48 PM 40.7369 -73.7670 121° Southeast 290 334 12,900 -947 Descending FlightAware ADS-B
Tue 09:04:58 PM 40.7268 -73.7540 136° Southeast 281 323 12,800 -1,385 Descending FlightAware ADS-B
Tue 09:05:27 PM 40.6935 -73.7384 160° South 273 314 12,000 -2,063 Descending FlightAware ADS-B
Tue 09:06:02 PM 40.6492 -73.7269 169° South 274 315 10,600 -2,423 Descending FlightAware ADS-B
Tue 09:06:19 PM 40.6281 -73.7216 169° South 274 315 9,900 -2,229 Descending FlightAware ADS-B
Tue 09:06:37 PM 40.6065 -73.7159 169° South 269 310 9,300 -2,182 Descending FlightAware ADS-B
Tue 09:06:52 PM 40.5876 -73.7111 169° South 264 304 8,700 -2,129 Descending FlightAware ADS-B
Tue 09:07:08 PM 40.5686 -73.7059 168° South 261 300 8,200 -1,500 Descending FlightAware ADS-B
Tue 09:07:24 PM 40.5497 -73.7009 169° South 259 298 7,900 -909 Descending FlightAware ADS-B
Tue 09:07:41 PM 40.5310 -73.6958 168° South 251 289 7,700 -1,241 Descending FlightAware ADS-B
Tue 09:07:53 PM 40.5162 -73.6918 168° South 250 288 7,300 -1,765 Descending FlightAware ADS-B
Tue 09:07:58 PM 40.5112 -73.6908 171° South 252 290 7,200 -1,636 Descending FlightAware ADS-B
Tue 09:08:04 PM 40.5044 -73.6903 177° South 254 292 7,000 -2,000 Descending FlightAware ADS-B
Tue 09:08:07 PM 40.5002 -73.6908 185° South 255 293 6,900 -1,714 Descending FlightAware ADS-B
Tue 09:08:11 PM 40.4964 -73.6917 190° South 257 296 6,800 -1,800 Descending FlightAware ADS-B
Tue 09:08:17 PM 40.4889 -73.6953 200° South 260 299 6,600 -2,000 Descending FlightAware ADS-B
Tue 09:08:23 PM 40.4826 -73.6994 206° Southwest 261 300 6,400 -1,895 Descending FlightAware ADS-B
Tue 09:08:36 PM 40.4695 -73.7092 210° Southwest 261 300 6,000 -2,143 Descending FlightAware ADS-B
Tue 09:08:51 PM 40.4532 -73.7223 211° Southwest 263 303 5,400 -2,182 Descending FlightAware ADS-B
Tue 09:09:09 PM 40.4347 -73.7370 211° Southwest 262 302 4,800 -1,714 Descending FlightAware ADS-B
Tue 09:09:26 PM 40.4170 -73.7507 211° Southwest 261 300 4,400 -1,273 Descending FlightAware ADS-B
Tue 09:09:42 PM 40.4010 -73.7632 211° Southwest 260 299 4,100 -1,395 Descending FlightAware ADS-B
Tue 09:10:09 PM 40.3722 -73.7852 210° Southwest 260 299 3,400 -1,371 Descending FlightAware ADS-B
Tue 09:10:17 PM 40.3648 -73.7919 215° Southwest 262 302 3,300 -750 Descending FlightAware ADS-B
Tue 09:10:25 PM 40.3576 -73.8026 229° Southwest 266 306 3,200 -923 Descending FlightAware ADS-B
Tue 09:10:30 PM 40.3550 -73.8084 240° Southwest 269 310 3,100 -600 Descending FlightAware ADS-B
Tue 09:10:35 PM 40.3528 -73.8156 248° West 270 311 3,100 -375 Level FlightAware ADS-B
Tue 09:10:46 PM 40.3510 -73.8342 263° West 271 312 3,000 -429 Descending FlightAware ADS-B
Tue 09:10:49 PM 40.3514 -73.8391 276° West 272 313 3,000 -462 Level FlightAware ADS-B
Tue 09:11:12 PM 40.3645 -73.8733 297° West 273 314 2,800 -324 Descending FlightAware ADS-B
Tue 09:11:26 PM 40.3748 -73.8912 307° West 274 315 2,800  Level FlightAware ADS-B
Tue 09:11:47 PM 40.3911 -73.9195 307° West 274 315 2,800  Level FlightAware ADS-B
Tue 09:12:04 PM 40.4041 -73.9421 307° West 274 315 2,800  Level FlightAware ADS-B
Tue 09:12:23 PM 40.4190 -73.9677 307° West 274 315 2,800  Level FlightAware ADS-B
Tue 09:12:42 PM 40.4360 -73.9876 318° Northwest 274 315 2,800  Level FlightAware ADS-B
Tue 09:13:00 PM 40.4585 -73.9943 347° North 270 311 2,800  Level FlightAware ADS-B
Tue 09:13:37 PM 40.4950 -73.9820 14° North 243 280 2,800  Level FlightAware ADS-B
Tue 09:14:07 PM 40.5240 -73.9630 26° Northeast 218 251 2,800 -436 Level FlightAware ADS-B
Tue 09:14:32 PM 40.5470 -73.9450 31° Northeast 204 235 2,400 -982 Descending FlightAware ADS-B
Tue 09:15:02 PM 40.5700 -73.9270 31° Northeast 185 213 1,900 -800 Descending FlightAware ADS-B
Tue 09:15:17 PM 40.5810 -73.9180 32° Northeast 179 206 1,800 -450 Descending FlightAware ADS-B
Tue 09:15:42 PM 40.5980 -73.9040 32° Northeast 147 169 1,600 -545 Descending FlightAware ADS-B
Tue 09:16:12 PM 40.6130 -73.8910 33° Northeast 141 162 1,300 -600 Descending FlightAware ADS-B
Tue 09:16:42 PM 40.6300 -73.8790 28° Northeast 135 155 1,000 -545 Descending FlightAware ADS-B
Tue 09:17:07 PM 40.6440 -73.8680 31° Northeast 130 150 800 -450 Descending FlightAware ADS-B
Tue 09:17:22 PM 40.6520 -73.8620 30° Northeast 123 142 700 -400 Descending FlightAware ADS-B
Tue 09:17:37 PM 40.6550 -73.8530 66° East 117 135 600 -400 Descending FlightAware ADS-B
Tue 09:18:07 PM 40.6580 -73.8310 80° East 119 137 400 -450 Descending FlightAware ADS-B
Tue 09:18:17 PM 40.6580 -73.8240 90° East 121 139 300 -450 Descending FlightAware ADS-B
Tue 09:18:47 PM 40.6540 -73.8030 104° East 124 143 100 -400 Descending FlightAware ADS-B
Tue 09:19:07 PM 40.6480 -73.7900 121° Southeast 121 139 -300 Descending FlightAware ADS-B

Login

Don't have an account? Register now (free) for customized features, flight alerts, and more!